createdAt,value
2023-01-08T00:03:08.273Z,17.65
2023-01-08T00:13:09.597Z,16.85
2023-01-08T00:23:10.884Z,15.75
2023-01-08T00:33:12.175Z,14.48
2023-01-08T00:43:13.439Z,13.73
2023-01-08T00:53:14.681Z,14.25
2023-01-08T01:03:15.931Z,10.10
2023-01-08T01:13:17.195Z,6.65
2023-01-08T01:23:18.494Z,4.25
2023-01-08T01:33:19.735Z,4.38
2023-01-08T01:43:21.014Z,4.28
2023-01-08T01:53:22.263Z,4.07
2023-01-08T02:03:23.502Z,3.95
2023-01-08T02:13:24.741Z,4.10
2023-01-08T02:23:26.067Z,4.53
2023-01-08T02:33:27.411Z,4.70
2023-01-08T02:43:28.686Z,4.10
2023-01-08T02:53:30.032Z,4.70
2023-01-08T03:03:31.318Z,4.22
2023-01-08T03:13:33.110Z,4.53
2023-01-08T03:23:34.390Z,5.40
2023-01-08T03:33:35.644Z,5.55
2023-01-08T03:43:36.912Z,5.82
2023-01-08T03:53:38.259Z,6.35
2023-01-08T04:03:39.543Z,8.05
2023-01-08T04:13:40.829Z,8.38
2023-01-08T04:23:42.117Z,6.60
2023-01-08T04:33:43.362Z,7.25
2023-01-08T04:43:44.614Z,6.72
2023-01-08T04:53:46.398Z,6.13
2023-01-08T05:03:47.744Z,6.32
2023-01-08T05:13:49.129Z,6.88
2023-01-08T05:23:50.385Z,6.55
2023-01-08T05:33:51.686Z,6.25
2023-01-08T05:43:53.115Z,6.82
2023-01-08T05:53:54.372Z,6.90
2023-01-08T06:03:55.852Z,6.10
2023-01-08T06:13:57.147Z,5.35
2023-01-08T06:23:58.391Z,4.20
2023-01-08T06:33:59.644Z,4.00
2023-01-08T06:44:00.885Z,3.75
2023-01-08T06:54:02.106Z,3.55
2023-01-08T07:04:03.380Z,4.15
2023-01-08T07:14:04.735Z,3.83
2023-01-08T07:24:07.503Z,3.78
2023-01-08T07:34:08.782Z,3.38
2023-01-08T07:44:10.085Z,3.35
2023-01-08T07:54:11.325Z,3.97
2023-01-08T08:04:12.912Z,4.00
2023-01-08T08:14:14.338Z,4.40
2023-01-08T08:24:16.164Z,5.88
2023-01-08T08:34:17.433Z,4.65
2023-01-08T08:44:18.808Z,4.75
2023-01-08T08:54:20.059Z,4.30
2023-01-08T09:04:21.360Z,3.35
2023-01-08T09:14:22.687Z,3.70
2023-01-08T09:24:23.952Z,3.53
2023-01-08T09:34:25.196Z,3.72
2023-01-08T09:44:26.519Z,5.00
2023-01-08T09:54:27.838Z,3.70
2023-01-08T10:04:29.113Z,4.82
2023-01-08T10:14:30.420Z,7.13
2023-01-08T10:24:31.706Z,4.55
2023-01-08T10:34:33.183Z,3.20
2023-01-08T10:44:35.938Z,3.70
2023-01-08T10:54:37.228Z,2.67
2023-01-08T11:04:38.505Z,2.50
2023-01-08T11:14:39.957Z,1.90
2023-01-08T11:24:42.261Z,1.80
2023-01-08T11:34:43.541Z,1.92
2023-01-08T11:44:45.986Z,1.67
2023-01-08T11:54:47.336Z,1.65
2023-01-08T12:04:48.594Z,2.00
2023-01-08T12:14:49.855Z,1.40
2023-01-08T12:24:51.221Z,1.35
2023-01-08T12:34:52.558Z,1.20
2023-01-08T12:44:54.490Z,1.15
2023-01-08T12:54:56.574Z,1.15
2023-01-08T13:04:57.956Z,0.85
2023-01-08T13:14:59.237Z,1.02
2023-01-08T13:25:02.289Z,1.00
2023-01-08T13:35:03.661Z,1.00
2023-01-08T13:45:05.039Z,0.93
2023-01-08T13:55:06.368Z,0.80
2023-01-08T14:05:07.765Z,1.10
2023-01-08T14:15:09.979Z,0.82
2023-01-08T14:25:12.357Z,0.90
2023-01-08T14:35:13.665Z,0.80
2023-01-08T14:45:15.217Z,1.20
2023-01-08T14:55:18.570Z,1.15
2023-01-08T15:05:20.087Z,0.82
2023-01-08T15:15:21.403Z,1.05
2023-01-08T15:25:22.653Z,0.98
2023-01-08T15:35:25.907Z,1.40
2023-01-08T15:45:28.422Z,1.20
2023-01-08T15:55:32.354Z,2.42
2023-01-08T16:05:33.657Z,1.97
2023-01-08T16:15:35.463Z,1.80
2023-01-08T16:25:36.855Z,2.00
2023-01-08T16:35:38.114Z,1.90
2023-01-08T16:45:39.433Z,7.28
2023-01-08T16:55:40.715Z,6.68
2023-01-08T17:05:42.270Z,4.05
2023-01-08T17:15:43.600Z,3.72
2023-01-08T17:25:44.879Z,5.43
2023-01-08T17:35:46.218Z,3.05
2023-01-08T17:45:47.479Z,3.33
2023-01-08T17:55:49.174Z,3.85
2023-01-08T18:05:50.471Z,3.83
2023-01-08T18:15:51.759Z,5.10
2023-01-08T18:25:53.072Z,5.30
2023-01-08T18:35:54.400Z,6.47
2023-01-08T18:45:55.683Z,6.53
2023-01-08T18:55:56.942Z,7.10
2023-01-08T19:05:58.327Z,11.40
2023-01-08T19:16:01.032Z,38.22
2023-01-08T19:26:02.312Z,8.30
2023-01-08T19:36:05.723Z,7.43
2023-01-08T19:46:07.154Z,8.15
2023-01-08T19:56:08.516Z,6.28
2023-01-08T20:06:09.918Z,5.65
2023-01-08T20:16:11.242Z,6.20
2023-01-08T20:26:14.233Z,9.18
2023-01-08T20:36:15.471Z,9.15
2023-01-08T20:46:16.778Z,11.77
2023-01-08T20:56:18.105Z,12.30
2023-01-08T21:06:19.512Z,13.88
2023-01-08T21:16:22.925Z,10.05
2023-01-08T21:26:24.433Z,8.18
2023-01-08T21:36:25.699Z,6.80
2023-01-08T21:46:26.969Z,5.90
2023-01-08T21:56:28.257Z,7.40
2023-01-08T22:06:29.553Z,8.63
2023-01-08T22:16:30.860Z,7.70
2023-01-08T22:26:35.062Z,7.75
2023-01-08T22:36:36.369Z,6.83
2023-01-08T22:46:37.646Z,8.52
2023-01-08T22:56:38.893Z,7.32
2023-01-08T23:06:40.312Z,6.55
2023-01-08T23:16:41.645Z,5.28
2023-01-08T23:26:43.174Z,4.43
2023-01-08T23:36:44.496Z,3.58
2023-01-08T23:46:45.748Z,2.88
2023-01-08T23:56:47.020Z,2.58
